Time;durP1;ratioP1;P1;durP2;ratioP2;P2;SDS_P1;SDS_P2;PMS_P1;PMS_P2;Temp;Humidity;BMP_temperature;BMP_pressure;BME280_temperature;BME280_humidity;BME280_pressure;Samples;Min_cycle;Max_cycle;Signal;HPM_P1;HPM_P2
2022/04/05 01:59:55;;;;;;;12.65;1.70;;;6.30;99.90;;;;;;4890391;29;20059;-90
2022/04/05 02:02:25;;;;;;;15.63;2.15;;;6.30;99.90;;;;;;4898596;29;20036;-91
2022/04/05 02:05:17;;;;;;;17.15;2.15;;;6.20;99.90;;;;;;4911781;29;20037;-90
2022/04/05 02:07:53;;;;;;;19.10;1.98;;;6.20;99.90;;;;;;4913059;29;20040;-90
2022/04/05 02:10:48;;;;;;;11.35;1.67;;;6.20;99.90;;;;;;4883744;29;20390;-90
2022/04/05 02:13:15;;;;;;;13.18;1.98;;;6.20;99.90;;;;;;4882156;29;20044;-89
2022/04/05 02:16:29;;;;;;;12.15;1.95;;;6.20;99.90;;;;;;4898634;29;20039;-89
2022/04/05 02:19:28;;;;;;;11.48;1.85;;;6.20;99.90;;;;;;4891402;29;20059;-90
2022/04/05 02:22:12;;;;;;;10.43;1.50;;;6.20;99.90;;;;;;4855550;29;20731;-93
2022/04/05 02:24:41;;;;;;;13.35;1.83;;;6.20;99.90;;;;;;4898905;29;20040;-89
2022/04/05 02:27:09;;;;;;;12.82;2.03;;;6.30;99.90;;;;;;4877922;29;20044;-90
2022/04/05 02:29:54;;;;;;;14.68;2.50;;;6.20;99.90;;;;;;4883593;29;20048;-89
2022/04/05 02:32:38;;;;;;;13.32;2.03;;;6.20;99.90;;;;;;4898347;29;20055;-91
2022/04/05 02:35:12;;;;;;;15.20;1.90;;;6.20;99.90;;;;;;4879946;29;20044;-89
2022/04/05 02:37:39;;;;;;;17.05;2.63;;;6.20;99.90;;;;;;4899518;29;20047;-89
2022/04/05 02:40:23;;;;;;;11.35;1.98;;;6.20;99.90;;;;;;4879088;29;20040;-90
2022/04/05 02:43:15;;;;;;;11.18;2.38;;;6.20;99.90;;;;;;4892040;29;20122;-89
2022/04/05 02:46:26;;;;;;;;;;;;;;;;;;;;;
2022/04/05 02:49:28;;;;;;;12.20;2.22;;;6.20;99.90;;;;;;4902480;29;20036;-90
2022/04/05 02:52:36;;;;;;;16.30;2.50;;;6.30;99.90;;;;;;4862422;29;20052;-91
2022/04/05 02:55:03;;;;;;;16.40;2.63;;;6.30;99.90;;;;;;4870477;29;20534;-89
2022/04/05 02:57:58;;;;;;;17.08;2.50;;;6.30;99.90;;;;;;4871132;29;20040;-90
2022/04/05 03:00:36;;;;;;;17.50;2.90;;;6.30;99.90;;;;;;4845882;29;20128;-89
2022/04/05 03:06:04;;;;;;;16.40;3.22;;;6.30;99.90;;;;;;4870647;29;20127;-89
2022/04/05 03:08:38;;;;;;;21.92;2.97;;;6.30;99.90;;;;;;4857735;29;20040;-90
2022/04/05 03:11:05;;;;;;;16.67;2.95;;;6.40;99.90;;;;;;4876788;29;20124;-90
2022/04/05 03:13:33;;;;;;;23.92;3.65;;;6.30;99.90;;;;;;4877758;29;20083;-90
2022/04/05 03:16:37;;;;;;;25.50;4.68;;;6.30;99.90;;;;;;4873833;29;20539;-90
2022/04/05 03:19:09;;;;;;;23.40;4.70;;;6.40;99.90;;;;;;4840568;29;20049;-89
2022/04/05 03:21:36;;;;;;;18.00;4.38;;;6.30;99.90;;;;;;4836047;29;20498;-91
2022/04/05 03:24:16;;;;;;;17.52;4.30;;;6.40;99.90;;;;;;4866472;29;20076;-89
2022/04/05 03:27:03;;;;;;;17.02;4.63;;;6.30;99.90;;;;;;4849141;29;20040;-89
2022/04/05 03:29:38;;;;;;;20.45;4.90;;;6.40;99.90;;;;;;4866069;29;20139;-90
2022/04/05 03:32:13;;;;;;;23.55;5.07;;;6.30;99.90;;;;;;4869318;29;20692;-89
2022/04/05 03:34:56;;;;;;;19.88;4.93;;;6.30;99.90;;;;;;4882544;29;20070;-90
2022/04/05 03:37:53;;;;;;;23.20;5.40;;;6.40;99.90;;;;;;4901048;29;20132;-89
2022/04/05 03:40:26;;;;;;;25.60;5.18;;;6.40;99.90;;;;;;4881514;29;20059;-90
2022/04/05 03:43:11;;;;;;;;;;;;;;;;;;;;;
2022/04/05 03:45:41;;;;;;;24.10;5.18;;;6.40;99.90;;;;;;4874230;29;20060;-90
2022/04/05 03:48:33;;;;;;;24.10;4.82;;;6.40;99.90;;;;;;4871193;29;20064;-89
2022/04/05 03:51:08;;;;;;;24.08;5.18;;;6.40;99.90;;;;;;4850596;29;20105;-89
2022/04/05 03:53:43;;;;;;;21.95;4.47;;;6.40;99.90;;;;;;4871934;29;20052;-89
